Station Historical Data
Daily Summary for May 27, 2017 Units:  Metric    English   Both
« Previous Day
Next Day »
Daily Weekly Monthly Yearly Custom
  High: Low: Average:
Temperature: 28.3 °C 18.2 °C 23.2 °C
Dew Point: 20.7 °C 15.8 °C 18.3 °C
Humidity: 88% 60% 75%
Wind Speed: 1.6km/h 0km/h 0km/h
Wind Gust: 8km/h - -
Wind- - WNW
Pressure: 1017.2 hPa 1013.4 hPa -
Precipitation: 0 mm    
Historical Graphs
 
 
Tabular Data for May 27, 2017
Time Temperature Dew Point Pressure Wind Wind Speed Wind Gust Humidity Rainfall Rate (Hourly) Conditions
00:00 20.7 °C 16.7 °C 1016.5 hPa Calm     78% 0 mm SCT
00:10 20.5 °C 16.7 °C 1016.5 hPa Calm     79% 0 mm SCT
00:20 20.3 °C 16.7 °C 1016.5 hPa Calm     80% 0 mm SCT
00:30 20.1 °C 16.6 °C 1016.5 hPa Calm     80% 0 mm SCT
00:40 19.9 °C 16.4 °C 1016.5 hPa Calm     80% 0 mm SCT
00:50 19.7 °C 16.4 °C 1016.5 hPa Calm     81% 0 mm SCT
01:00 19.6 °C 16.4 °C 1016.5 hPa Calm     82% 0 mm SCT
01:10 19.4 °C 16.5 °C 1016.5 hPa Calm     83% 0 mm SCT
01:20 19.3 °C 16.3 °C 1016.5 hPa Calm     83% 0 mm SCT
01:30 19.2 °C 16.4 °C 1016.5 hPa Calm     84% 0 mm SCT
01:40 19.1 °C 16.3 °C 1016.5 hPa Calm     84% 0 mm SCT
01:50 19 °C 16.4 °C 1016.5 hPa Calm     85% 0 mm SCT
02:00 18.9 °C 16.4 °C 1016.5 hPa Calm     85% 0 mm SCT
02:10 18.9 °C 16.3 °C 1016.5 hPa Calm     85% 0 mm SCT
02:20 18.8 °C 16.4 °C 1016.5 hPa Calm     86% 0 mm SCT
02:30 18.8 °C 16.4 °C 1016.1 hPa Calm     86% 0 mm SCT
02:40 18.7 °C 16.3 °C 1016.1 hPa Calm     86% 0 mm SCT
02:50 18.2 °C 15.8 °C 1016.1 hPa Calm     86% 0 mm SCT
03:00 18.2 °C 15.8 °C 1016.1 hPa Calm     86% 0 mm SCT
03:10 18.2 °C 15.8 °C 1016.1 hPa Calm     86% 0 mm SCT
03:20 18.2 °C 15.8 °C 1016.1 hPa Calm     86% 0 mm SCT
03:30 18.2 °C 15.8 °C 1016.1 hPa Calm     86% 0 mm SCT
03:40 18.2 °C 15.8 °C 1016.1 hPa Calm     86% 0 mm SCT
03:50 18.2 °C 15.8 °C 1016.1 hPa Calm     86% 0 mm SCT
04:00 18.2 °C 15.8 °C 1016.1 hPa Calm     86% 0 mm SCT
04:10 18.2 °C 15.8 °C 1016.1 hPa Calm     86% 0 mm SCT
04:20 18.2 °C 15.8 °C 1016.1 hPa Calm     86% 0 mm SCT
04:30 18.2 °C 15.8 °C 1016.1 hPa Calm     86% 0 mm SCT
04:40 18.2 °C 15.8 °C 1015.8 hPa Calm     86% 0 mm SCT
04:50 18.2 °C 15.8 °C 1015.8 hPa Calm     86% 0 mm SCT
05:00 18.2 °C 15.8 °C 1015.8 hPa Calm     86% 0 mm SCT
05:10 18.2 °C 15.8 °C 1015.8 hPa Calm     86% 0 mm SCT
05:20 18.2 °C 15.8 °C 1015.8 hPa Calm     86% 0 mm SCT
05:30 18.2 °C 15.8 °C 1015.8 hPa Calm     86% 0 mm SCT
05:40 18.2 °C 15.8 °C 1015.8 hPa Calm     86% 0 mm SCT
05:50 18.2 °C 15.8 °C 1015.8 hPa Calm     86% 0 mm SCT
06:00 18.2 °C 15.8 °C 1015.8 hPa Calm     86% 0 mm SCT
06:10 18.2 °C 15.8 °C 1015.8 hPa Calm     86% 0 mm SCT
06:20 18.2 °C 15.8 °C 1015.8 hPa Calm     86% 0 mm SCT
06:30 18.2 °C 15.8 °C 1016.1 hPa Calm     86% 0 mm SCT
06:40 18.2 °C 15.8 °C 1016.1 hPa Calm     86% 0 mm SCT
06:50 18.2 °C 15.8 °C 1016.1 hPa Calm     86% 0 mm SCT
07:00 18.2 °C 15.8 °C 1016.1 hPa Calm     86% 0 mm SCT
07:10 18.2 °C 15.8 °C 1016.1 hPa Calm     86% 0 mm SCT
07:20 18.2 °C 15.8 °C 1016.5 hPa Calm     86% 0 mm SCT
07:30 18.3 °C 16.3 °C 1016.5 hPa Calm     88% 0 mm SCT
07:40 18.7 °C 16.4 °C 1016.5 hPa Calm     87% 0 mm SCT
07:50 18.9 °C 16.5 °C 1016.5 hPa Calm     86% 0 mm SCT
08:00 19.2 °C 16.8 °C 1016.8 hPa Calm     86% 0 mm SCT
08:10 19.6 °C 17 °C 1016.5 hPa Calm     85% 0 mm SCT
08:20 19.9 °C 17.2 °C 1016.8 hPa Calm   1.6 km/h 84% 0 mm SCT
08:30 20.3 °C 17.3 °C 1016.5 hPa Calm     83% 0 mm SCT
08:40 20.7 °C 17.3 °C 1016.8 hPa Calm     81% 0 mm SCT
08:50 21.1 °C 17.7 °C 1017.2 hPa Calm   1.6 km/h 81% 0 mm SCT
09:00 21.5 °C 17.7 °C 1017.2 hPa Calm   1.6 km/h 79% 0 mm SCT
09:10 21.7 °C 17.1 °C 1016.8 hPa Calm   1.6 km/h 75% 0 mm SCT
09:20 22 °C 17.6 °C 1017.2 hPa Calm     76% 0 mm SCT
09:30 22.4 °C 17.7 °C 1017.2 hPa Calm   1.6 km/h 75% 0 mm SCT
09:40 22.8 °C 17.5 °C 1017.2 hPa Calm     72% 0 mm SCT
09:50 23.1 °C 17.7 °C 1017.2 hPa Calm     72% 0 mm SCT
10:00 23.3 °C 18 °C 1017.2 hPa Calm   1.6 km/h 72% 0 mm SCT
10:10 24.1 °C 18.2 °C 1017.2 hPa Calm     70% 0 mm SCT
10:20 24.3 °C 18.9 °C 1017.2 hPa Calm   1.6 km/h 72% 0 mm SCT
10:30 24.6 °C 18.5 °C 1017.2 hPa Calm   1.6 km/h 69% 0 mm SCT
10:40 24.9 °C 18.8 °C 1017.2 hPa Calm   1.6 km/h 69% 0 mm SCT
10:50 25.1 °C 18.6 °C 1017.2 hPa Calm   1.6 km/h 67% 0 mm SCT
11:00 25.4 °C 19.3 °C 1017.2 hPa Calm   1.6 km/h 69% 0 mm SCT
11:10 25.8 °C 19 °C 1017.2 hPa Calm   8 km/h 66% 0 mm SCT
11:20 26 °C 18.7 °C 1017.2 hPa Calm   4.8 km/h 64% 0 mm SCT
11:30 26 °C 18.9 °C 1016.8 hPa Calm   4.8 km/h 65% 0 mm SCT
11:40 26.2 °C 19.1 °C 1016.8 hPa Calm   8 km/h 65% 0 mm SCT
11:50 26.2 °C 18.6 °C 1017.2 hPa Calm   8 km/h 63% 0 mm SCT
12:00 26.8 °C 19.4 °C 1017.2 hPa Calm   4.8 km/h 64% 0 mm SCT
12:10 26.6 °C 19.2 °C 1017.2 hPa Calm   4.8 km/h 64% 0 mm SCT
12:20 26.8 °C 19.2 °C 1017.2 hPa Calm   4.8 km/h 63% 0 mm SCT
12:30 27.1 °C 19.4 °C 1017.2 hPa Calm   4.8 km/h 63% 0 mm SCT
12:40 27.3 °C 19.3 °C 1017.2 hPa Calm   3.2 km/h 62% 0 mm SCT
12:50 27.3 °C 19.4 °C 1017.2 hPa West 1.6 km/h 4.8 km/h 62% 0 mm SCT
13:00 27.8 °C 19.6 °C 1017.2 hPa Calm   3.2 km/h 61% 0 mm SCT
13:10 28.3 °C 19.8 °C 1016.8 hPa Calm   3.2 km/h 60% 0 mm SCT
13:20 28.1 °C 19.6 °C 1016.5 hPa West 1.6 km/h 3.2 km/h 60% 0 mm SCT
13:30 27.6 °C 19.7 °C 1016.5 hPa Calm   4.8 km/h 62% 0 mm SCT
13:40 27.5 °C 19.8 °C 1016.5 hPa Calm   1.6 km/h 63% 0 mm SCT
13:50 27.3 °C 19.1 °C 1016.5 hPa WNW 1.6 km/h 4.8 km/h 61% 0 mm SCT
14:00 27 °C 19.8 °C 1016.5 hPa Calm   3.2 km/h 65% 0 mm SCT
14:10 27.2 °C 20 °C 1016.1 hPa Calm   1.6 km/h 65% 0 mm SCT
14:20 27.4 °C 19.5 °C 1016.1 hPa Calm   8 km/h 62% 0 mm SCT
14:30 27.4 °C 19.2 °C 1016.1 hPa Calm   3.2 km/h 61% 0 mm SCT
14:40 27.6 °C 19.7 °C 1015.8 hPa Calm   3.2 km/h 62% 0 mm SCT
14:50 27.2 °C 19.8 °C 1015.5 hPa Calm   1.6 km/h 64% 0 mm SCT
15:00 27.3 °C 19.9 °C 1015.8 hPa Calm   1.6 km/h 64% 0 mm SCT
15:10 27.2 °C 19.3 °C 1015.5 hPa Calm   1.6 km/h 62% 0 mm SCT
15:20 27.4 °C 19.7 °C 1015.1 hPa Calm   4.8 km/h 63% 0 mm SCT
15:30 27.3 °C 19.7 °C 1015.1 hPa Calm   1.6 km/h 63% 0 mm SCT
15:40 27.3 °C 19.1 °C 1015.1 hPa Calm   3.2 km/h 61% 0 mm SCT
15:50 27.8 °C 19.3 °C 1014.8 hPa Calm   3.2 km/h 60% 0 mm SCT
16:00 27.6 °C 20.2 °C 1014.8 hPa Calm   1.6 km/h 64% 0 mm SCT
16:10 27.6 °C 20.7 °C 1014.8 hPa Calm     66% 0 mm SCT
16:20 27.6 °C 20.4 °C 1014.8 hPa Calm   8 km/h 65% 0 mm SCT
16:30 27.6 °C 20.4 °C 1014.4 hPa Calm   1.6 km/h 65% 0 mm SCT
16:40 27.9 °C 19.7 °C 1014.4 hPa Calm   3.2 km/h 61% 0 mm SCT
16:50 27.8 °C 20.3 °C 1014.4 hPa Calm   3.2 km/h 64% 0 mm SCT
17:00 27.6 °C 20.4 °C 1014.4 hPa Calm   3.2 km/h 65% 0 mm SCT
17:10 28.1 °C 20.6 °C 1014.4 hPa Calm   1.6 km/h 64% 0 mm SCT
17:20 27.9 °C 20.4 °C 1014.1 hPa Calm   4.8 km/h 64% 0 mm SCT
17:30 28 °C 20.1 °C 1014.1 hPa NW 1.6 km/h 4.8 km/h 62% 0 mm SCT
17:40 27.6 °C 19.9 °C 1014.1 hPa Calm   3.2 km/h 63% 0 mm SCT
17:50 27.3 °C 20.4 °C 1014.1 hPa Calm   1.6 km/h 66% 0 mm SCT
18:00 27.2 °C 20.3 °C 1014.1 hPa North 1.6 km/h 3.2 km/h 66% 0 mm SCT
18:10 27.2 °C 20 °C 1014.1 hPa Calm   3.2 km/h 65% 0 mm SCT
18:20 27.2 °C 20 °C 1013.8 hPa Calm   1.6 km/h 65% 0 mm SCT
18:30 27 °C 20.1 °C 1013.8 hPa Calm   3.2 km/h 66% 0 mm SCT
18:40 26.8 °C 19.7 °C 1013.8 hPa Calm   3.2 km/h 65% 0 mm SCT
18:50 26.8 °C 20.2 °C 1014.1 hPa Calm   3.2 km/h 67% 0 mm SCT
19:00 26.6 °C 19.9 °C 1014.1 hPa Calm   3.2 km/h 67% 0 mm SCT
19:10 26.4 °C 20.2 °C 1014.1 hPa Calm   1.6 km/h 69% 0 mm SCT
19:20 26.2 °C 20.1 °C 1014.1 hPa Calm   3.2 km/h 69% 0 mm SCT
19:30 26.2 °C 20.1 °C 1014.1 hPa Calm   1.6 km/h 69% 0 mm SCT
19:40 26.1 °C 20.2 °C 1014.1 hPa Calm     70% 0 mm SCT
19:50 25.9 °C 20.2 °C 1013.8 hPa Calm     71% 0 mm SCT
20:00 25.6 °C 20.2 °C 1013.8 hPa Calm     72% 0 mm SCT
20:10 25.3 °C 20.1 °C 1013.8 hPa Calm   1.6 km/h 73% 0 mm SCT
20:20 25.1 °C 20.2 °C 1013.8 hPa Calm     74% 0 mm SCT
20:30 25 °C 20.3 °C 1014.1 hPa Calm     75% 0 mm SCT
20:40 24.9 °C 20.2 °C 1013.8 hPa Calm     75% 0 mm SCT
20:50 24.7 °C 20.2 °C 1013.8 hPa Calm     76% 0 mm SCT
21:00 24.5 °C 20.2 °C 1013.4 hPa Calm     77% 0 mm SCT
21:10 24.2 °C 20.1 °C 1013.4 hPa Calm     78% 0 mm SCT
21:20 23.9 °C 20.1 °C 1013.8 hPa Calm     79% 0 mm SCT
21:30 23.8 °C 20.2 °C 1013.4 hPa Calm     80% 0 mm SCT
21:40 23.7 °C 20 °C 1013.4 hPa Calm     80% 0 mm SCT
21:50 23.6 °C 20.2 °C 1013.4 hPa Calm     81% 0 mm SCT
22:00 23.6 °C 20.3 °C 1013.4 hPa Calm     82% 0 mm SCT
22:10 23.6 °C 20.3 °C 1013.4 hPa Calm     82% 0 mm SCT
22:20 23.4 °C 20.2 °C 1013.8 hPa Calm   1.6 km/h 82% 0 mm SCT
22:30 23.4 °C 20.3 °C 1013.8 hPa Calm   1.6 km/h 83% 0 mm SCT
22:50 23.3 °C 20.5 °C 1014.1 hPa Calm   1.6 km/h 84% 0 mm SCT
23:00 23.4 °C 20.6 °C 1014.1 hPa Calm     84% 0 mm SCT
23:10 23.4 °C 20.6 °C 1014.4 hPa Calm     84% 0 mm SCT
23:20 23.4 °C 20.6 °C 1014.4 hPa Calm     84% 0 mm SCT
23:30 23.4 °C 20.6 °C 1014.4 hPa Calm     84% 0 mm SCT
23:40 23.4 °C 20.5 °C 1014.8 hPa Calm     84% 0 mm SCT
23:50 23.3 °C 20.5 °C 1014.8 hPa Calm     84% 0 mm SCT
Piedmont Bend
Compliments of Weather Underground - 4 mb